Hlavní strana
METAR-TAF:

METAR-TAF

Letiště :

Adelaide, Austrálie

zeměpisná šířka: 34-56S, zeměpisná délka: 138-31E, výška: 6 m

Aktuální stav počasí

Zpráva byla vytvořena před 28 minutami, v 22:30 UTC
Severovýchodní vítr 9 kt
Teplota 7°C
Vlhkost vzduchu 81%
Tlak 1027 hPa
Viditelnost 10 km a více
Skoro jasno ve výšce 3000 ft
Oblačno až skoro zataženo ve výšce 32000 ft

METAR: YPAD 182230Z 04009KT 9999 FEW030 BKN320 07/04 Q1027 NOSIG

Čas: 08:28 (22:58 UTC)

Předpověď počasí

Zpráva byla vytvořena před 5 hodinami a 24 minutami, v 17:34 UTC
Předpověď platná od 18 v 18 UTC do 19 v 24 UTC
Severovýchodní vítr 8 kt
Viditelnost 10 km a více
Oblačno až skoro zataženo ve výšce 3000 ft
Od 19 v 0000 UTC
Severní vítr 12 kt
Viditelnost 10 km a více
Žádná oblačnost pod 1500 m, nevyskytují se cumulonimby.
Od 19 v 1200 UTC
Severovýchodní vítr 8 kt
Viditelnost 10 km a více
Žádná oblačnost pod 1500 m, nevyskytují se cumulonimby.

TAF: YPAD 181734Z 1818/1924 04008KT 9999 BKN030 FM190000 36012KT CAVOK FM191200 04008KT CAVOK

Stav a předpovědi počasí z více než 4 000 letišť (zprávy METAR a TAF).

Červené a žluté tečky na mapě představují dostupné meteorologické stanice.

Když kurzor umístíte na tečku, zobrazí se název stanice.

Pak kliknutím zobrazíte stav a předpověď počasí.

Chcete-li změnit mapu, kliknutím na zelené tlačítko se znaménkem +mapu přiblížíte, kliknutím na zelené tlačítko se znaménkem – mapu oddálíte a kliknutím na zelené šipky přejdete na sousední mapy.


METAR-TAF: